Terminal Aerodrome Forecast
Issued by NWS Sterling, VA

Current Version | Previous Version | Graphics & Text | Print | Product List | Glossary On
Versions: 1 2 3 4 5 6 7 8 9 10 11 12 13 14 15 16 17 18 19 20 21 22 23 24 25 26 27 28 29
349
FTUS41 KLWX 050520
TAFIAD
TAF
KIAD 050520Z 0506/0612 33010G16KT P6SM -SHRA OVC050
     FM050700 33010G16KT 6SM -RASN BR OVC035
     FM051200 33014G23KT P6SM BKN140
     FM052100 32011KT P6SM FEW250
     FM060000 32006KT P6SM SKC
     FM060800 00000KT P6SM FEW250=

USA.gov is the U.S. government's official web portal to all federal, state and local government web resources and services.